createdAt,value
2018-03-29T00:00:00.201Z,63.30
2018-03-29T00:02:27.754Z,63.31
2018-03-29T00:04:55.288Z,63.43
2018-03-29T00:07:22.816Z,64.65
2018-03-29T00:09:50.365Z,64.52
2018-03-29T00:12:17.886Z,64.76
2018-03-29T00:14:45.444Z,64.64
2018-03-29T00:17:12.972Z,64.91
2018-03-29T00:19:40.496Z,64.28
2018-03-29T00:22:08.012Z,64.20
2018-03-29T00:24:35.764Z,64.58
2018-03-29T00:27:03.318Z,64.14
2018-03-29T00:29:30.841Z,63.90
2018-03-29T00:31:58.403Z,64.37
2018-03-29T00:34:25.919Z,64.54
2018-03-29T00:36:53.444Z,64.72
2018-03-29T00:39:20.960Z,64.28
2018-03-29T00:41:48.479Z,64.40
2018-03-29T00:44:16.014Z,64.75
2018-03-29T00:46:44.408Z,64.22
2018-03-29T00:49:11.941Z,63.86
2018-03-29T00:51:39.461Z,64.63
2018-03-29T00:54:06.979Z,65.44
2018-03-29T00:56:34.647Z,65.55
2018-03-29T00:59:02.163Z,65.38
2018-03-29T01:01:29.702Z,66.46
2018-03-29T01:03:57.448Z,65.32
2018-03-29T01:06:24.987Z,66.04
2018-03-29T01:08:52.505Z,66.20
2018-03-29T01:11:20.036Z,66.03
2018-03-29T01:13:47.578Z,66.64
2018-03-29T01:16:15.095Z,67.49
2018-03-29T01:18:42.891Z,68.33
2018-03-29T01:21:10.759Z,68.23
2018-03-29T01:23:38.287Z,68.07
2018-03-29T01:26:05.833Z,67.99
2018-03-29T01:28:33.359Z,68.16
2018-03-29T01:31:00.922Z,68.18
2018-03-29T01:33:28.453Z,68.82
2018-03-29T01:35:55.987Z,69.31
2018-03-29T01:38:23.506Z,69.00
2018-03-29T01:40:51.026Z,68.52
2018-03-29T01:43:18.567Z,68.59
2018-03-29T01:45:46.083Z,69.01
2018-03-29T01:48:13.603Z,69.03
2018-03-29T01:50:41.115Z,69.09
2018-03-29T01:53:08.634Z,68.84
2018-03-29T01:55:36.175Z,68.93
2018-03-29T01:58:03.727Z,68.95
2018-03-29T02:00:31.257Z,70.09
2018-03-29T02:02:58.779Z,69.38
2018-03-29T02:05:26.300Z,69.86
2018-03-29T02:07:53.826Z,69.89
2018-03-29T02:10:21.345Z,68.62
2018-03-29T02:12:48.891Z,69.15
2018-03-29T02:15:16.407Z,69.91
2018-03-29T02:17:43.922Z,71.14
2018-03-29T02:20:11.438Z,70.79
2018-03-29T02:22:38.960Z,70.46
2018-03-29T02:25:06.519Z,70.51
2018-03-29T02:27:34.051Z,70.22
2018-03-29T02:30:01.568Z,70.62
2018-03-29T02:32:29.097Z,71.17
2018-03-29T02:34:56.618Z,71.22
2018-03-29T02:37:24.155Z,70.67
2018-03-29T02:39:51.679Z,70.19
2018-03-29T02:42:19.195Z,70.07
2018-03-29T02:44:46.720Z,70.47
2018-03-29T02:47:14.243Z,70.87
2018-03-29T02:49:41.827Z,70.69
2018-03-29T02:52:09.358Z,69.62
2018-03-29T02:54:36.881Z,69.99
2018-03-29T02:57:04.410Z,69.34
2018-03-29T02:59:31.931Z,68.83
2018-03-29T03:01:59.466Z,68.93
2018-03-29T03:04:26.984Z,69.62
2018-03-29T03:06:54.504Z,69.51
2018-03-29T03:09:22.037Z,69.44
2018-03-29T03:11:49.556Z,69.38
2018-03-29T03:14:17.103Z,69.17
2018-03-29T03:16:44.629Z,69.34
2018-03-29T03:19:12.151Z,69.36
2018-03-29T03:21:39.667Z,69.34
2018-03-29T03:24:07.184Z,69.67
2018-03-29T03:26:34.726Z,69.33
2018-03-29T03:29:02.246Z,70.03
2018-03-29T03:31:29.790Z,69.67
2018-03-29T03:33:57.308Z,70.36
2018-03-29T03:36:24.844Z,69.85
2018-03-29T03:38:52.423Z,69.76
2018-03-29T03:41:19.943Z,69.71
2018-03-29T03:43:47.476Z,70.21
2018-03-29T03:46:14.992Z,70.13
2018-03-29T03:48:42.526Z,70.17
2018-03-29T03:51:10.080Z,70.26
2018-03-29T03:53:37.606Z,70.77
2018-03-29T03:56:05.131Z,70.21
2018-03-29T03:58:32.647Z,69.89
2018-03-29T04:01:00.177Z,70.37
2018-03-29T04:03:27.699Z,71.02
2018-03-29T04:05:55.251Z,70.58
2018-03-29T04:08:22.767Z,70.46
2018-03-29T04:10:50.283Z,71.49
2018-03-29T04:13:17.810Z,72.61
2018-03-29T04:15:45.327Z,73.07
2018-03-29T04:18:12.878Z,73.45
2018-03-29T04:20:40.483Z,73.84
2018-03-29T04:23:07.998Z,74.39
2018-03-29T04:25:35.515Z,73.48
2018-03-29T04:28:03.040Z,73.32
2018-03-29T04:30:30.594Z,72.86
2018-03-29T04:32:58.143Z,72.67
2018-03-29T04:35:26.236Z,72.23
2018-03-29T04:37:53.759Z,71.04
2018-03-29T04:40:21.319Z,69.91
2018-03-29T04:42:48.863Z,68.52
2018-03-29T04:45:16.387Z,67.65
2018-03-29T04:47:43.918Z,66.28
2018-03-29T04:50:11.434Z,65.18
2018-03-29T04:52:38.951Z,64.13
2018-03-29T04:55:06.516Z,62.95
2018-03-29T04:57:34.059Z,61.90
2018-03-29T05:00:01.618Z,60.00
2018-03-29T05:02:29.164Z,59.46
2018-03-29T05:04:56.686Z,58.47
2018-03-29T05:07:24.211Z,57.16
2018-03-29T05:09:51.735Z,57.44
2018-03-29T05:12:19.280Z,56.75
2018-03-29T05:14:46.818Z,60.85
2018-03-29T05:17:14.338Z,56.40
2018-03-29T05:19:41.850Z,55.05
2018-03-29T05:22:09.387Z,53.72
2018-03-29T05:24:36.906Z,53.17
2018-03-29T05:27:04.469Z,53.29
2018-03-29T05:29:31.983Z,52.40
2018-03-29T05:31:59.527Z,51.71
2018-03-29T05:34:27.051Z,52.99
2018-03-29T05:36:54.628Z,51.94
2018-03-29T05:39:22.151Z,50.91
2018-03-29T05:41:49.687Z,51.67
2018-03-29T05:44:17.223Z,51.96
2018-03-29T05:46:44.747Z,51.45
2018-03-29T05:49:12.279Z,49.56
2018-03-29T05:51:39.796Z,46.28
2018-03-29T05:54:07.355Z,46.01
2018-03-29T05:56:34.923Z,46.29
2018-03-29T05:59:02.434Z,45.93
2018-03-29T06:01:29.988Z,44.16
2018-03-29T06:03:57.539Z,43.61
2018-03-29T06:06:25.063Z,42.60
2018-03-29T06:08:52.578Z,41.53
2018-03-29T06:11:20.096Z,42.10
2018-03-29T06:16:47.043Z,41.79
2018-03-29T06:19:14.588Z,41.86
2018-03-29T06:21:42.123Z,43.98
2018-03-29T06:24:09.667Z,46.37
2018-03-29T06:26:37.194Z,44.03
2018-03-29T06:29:04.731Z,44.71
2018-03-29T06:31:32.292Z,45.08
2018-03-29T06:33:59.825Z,43.85
2018-03-29T06:36:27.355Z,42.98
2018-03-29T06:38:55.008Z,44.85
2018-03-29T06:41:22.524Z,46.21
2018-03-29T06:43:50.052Z,45.67
2018-03-29T06:46:17.597Z,43.54
2018-03-29T06:48:45.127Z,46.29
2018-03-29T06:51:12.655Z,44.81
2018-03-29T06:53:40.183Z,43.08
2018-03-29T06:56:07.718Z,43.79
2018-03-29T06:58:35.267Z,43.56
2018-03-29T07:01:02.855Z,44.69
2018-03-29T07:03:30.366Z,45.15
2018-03-29T07:05:57.911Z,45.84
2018-03-29T07:08:25.474Z,43.15
2018-03-29T07:10:53.020Z,43.93
2018-03-29T07:13:20.559Z,42.42
2018-03-29T07:15:48.083Z,43.22
2018-03-29T07:18:15.640Z,41.22
2018-03-29T07:20:43.158Z,40.75
2018-03-29T07:23:10.683Z,41.92
2018-03-29T07:25:38.251Z,38.52
2018-03-29T07:28:05.778Z,37.29
2018-03-29T07:30:33.358Z,37.33
2018-03-29T07:33:00.888Z,38.86
2018-03-29T07:35:28.410Z,39.70
2018-03-29T07:37:55.931Z,39.71
2018-03-29T07:40:23.486Z,39.17
2018-03-29T07:42:51.036Z,38.59
2018-03-29T07:45:18.569Z,38.38
2018-03-29T07:47:46.099Z,37.91
2018-03-29T07:50:13.625Z,39.92
2018-03-29T07:52:41.231Z,39.71
2018-03-29T07:55:08.763Z,41.39
2018-03-29T07:57:36.289Z,39.27
2018-03-29T08:00:05.743Z,37.71
2018-03-29T08:02:33.269Z,38.67
2018-03-29T08:05:00.793Z,36.80
2018-03-29T08:07:28.371Z,35.26
2018-03-29T08:09:55.906Z,34.68
2018-03-29T08:12:23.463Z,32.80
2018-03-29T08:14:50.991Z,33.77
2018-03-29T08:17:18.519Z,33.46
2018-03-29T08:19:46.044Z,34.18
2018-03-29T08:22:13.595Z,34.52
2018-03-29T08:24:41.135Z,31.58
2018-03-29T08:27:08.663Z,32.77
2018-03-29T08:29:36.193Z,34.28
2018-03-29T08:32:03.722Z,32.54
2018-03-29T08:34:31.250Z,33.73
2018-03-29T08:36:58.858Z,34.36
2018-03-29T08:39:27.245Z,32.24
2018-03-29T08:41:54.834Z,31.88
2018-03-29T08:44:22.429Z,31.09
2018-03-29T08:46:50.957Z,30.24
2018-03-29T08:49:19.390Z,32.54
2018-03-29T08:51:47.884Z,32.27
2018-03-29T08:54:15.650Z,30.63
2018-03-29T08:56:46.221Z,30.57
2018-03-29T08:59:16.660Z,30.33
2018-03-29T09:01:45.084Z,31.40
2018-03-29T09:04:12.809Z,30.32
2018-03-29T09:06:41.797Z,29.23
2018-03-29T09:09:10.808Z,29.27
2018-03-29T09:11:39.291Z,28.57
2018-03-29T09:14:08.390Z,29.80
2018-03-29T09:16:35.916Z,30.81
2018-03-29T09:19:03.514Z,29.29
2018-03-29T09:21:31.033Z,28.57
2018-03-29T09:23:58.554Z,28.18
2018-03-29T09:26:26.085Z,28.00
2018-03-29T09:28:53.898Z,28.86
2018-03-29T09:31:21.461Z,27.75
2018-03-29T09:33:48.991Z,27.57
2018-03-29T09:36:16.511Z,26.33
2018-03-29T09:38:44.030Z,28.00
2018-03-29T09:41:11.560Z,27.04
2018-03-29T09:43:39.065Z,25.30
2018-03-29T09:46:06.647Z,26.38
2018-03-29T09:48:35.047Z,24.73
2018-03-29T09:51:02.584Z,25.73
2018-03-29T09:53:30.116Z,26.30
2018-03-29T09:55:57.640Z,27.14
2018-03-29T09:58:25.165Z,25.74
2018-03-29T10:00:52.735Z,25.79
2018-03-29T10:03:23.130Z,24.82
2018-03-29T10:05:50.696Z,23.87
2018-03-29T10:08:18.259Z,24.56
2018-03-29T10:10:45.804Z,25.56
2018-03-29T10:13:13.346Z,23.75
2018-03-29T10:15:40.875Z,22.94
2018-03-29T10:18:08.431Z,24.42
2018-03-29T10:20:36.069Z,23.19
2018-03-29T10:23:03.603Z,23.24
2018-03-29T10:25:31.186Z,22.18
2018-03-29T10:27:58.710Z,22.22
2018-03-29T10:30:26.233Z,22.26
2018-03-29T10:32:53.787Z,21.63
2018-03-29T10:35:21.338Z,21.93
2018-03-29T10:37:48.856Z,22.91
2018-03-29T10:40:16.417Z,21.67
2018-03-29T10:42:43.950Z,20.32
2018-03-29T10:45:14.332Z,20.82
2018-03-29T10:47:41.970Z,20.96
2018-03-29T10:50:09.498Z,21.51
2018-03-29T10:52:37.031Z,21.17
2018-03-29T10:55:04.554Z,22.28
2018-03-29T10:57:32.079Z,22.73
2018-03-29T10:59:59.607Z,22.78
2018-03-29T11:02:27.126Z,22.39
2018-03-29T11:04:54.646Z,21.84
2018-03-29T11:07:22.180Z,21.22
2018-03-29T11:09:49.720Z,21.33
2018-03-29T11:12:17.287Z,20.65
2018-03-29T11:14:44.818Z,20.67
2018-03-29T11:17:12.336Z,20.89
2018-03-29T11:19:39.865Z,20.20
2018-03-29T11:22:07.407Z,20.37
2018-03-29T11:24:34.956Z,20.55
2018-03-29T11:27:02.495Z,20.34
2018-03-29T11:29:30.034Z,20.51
2018-03-29T11:31:57.564Z,20.51
2018-03-29T11:34:25.096Z,21.01
2018-03-29T11:36:52.608Z,20.80
2018-03-29T11:39:20.127Z,21.52
2018-03-29T11:41:47.640Z,21.00
2018-03-29T11:44:15.166Z,21.61
2018-03-29T11:46:42.705Z,20.88
2018-03-29T11:49:10.270Z,20.72
2018-03-29T11:51:37.793Z,19.58
2018-03-29T11:54:05.329Z,19.13
2018-03-29T11:56:32.872Z,19.47
2018-03-29T11:59:00.384Z,19.97
2018-03-29T12:01:27.981Z,20.82
2018-03-29T12:03:55.506Z,20.92
2018-03-29T12:06:23.018Z,20.62
2018-03-29T12:08:50.539Z,19.58
2018-03-29T12:11:18.082Z,19.58
2018-03-29T12:13:45.628Z,20.41
2018-03-29T12:16:13.151Z,21.06
2018-03-29T12:18:40.672Z,21.01
2018-03-29T12:21:08.195Z,20.05
2018-03-29T12:23:35.714Z,20.15
2018-03-29T12:26:03.222Z,20.57
2018-03-29T12:28:30.734Z,21.29
2018-03-29T12:30:58.287Z,21.40
2018-03-29T12:33:25.815Z,21.08
2018-03-29T12:35:53.360Z,21.45
2018-03-29T12:38:20.904Z,21.30
2018-03-29T12:40:48.430Z,21.30
2018-03-29T12:43:15.947Z,21.67
2018-03-29T12:45:43.462Z,22.57
2018-03-29T12:48:11.006Z,22.73
2018-03-29T12:50:39.308Z,21.98
2018-03-29T12:53:06.823Z,22.30
2018-03-29T12:55:42.086Z,21.71
2018-03-29T12:58:12.474Z,23.12
2018-03-29T13:00:40.026Z,23.99
2018-03-29T13:03:07.549Z,24.29
2018-03-29T13:05:35.079Z,25.37
2018-03-29T13:08:02.624Z,26.91
2018-03-29T13:10:30.179Z,26.39
2018-03-29T13:12:57.730Z,25.82
2018-03-29T13:15:25.237Z,25.73
2018-03-29T13:17:52.755Z,24.95
2018-03-29T13:20:20.286Z,25.87
2018-03-29T13:22:47.801Z,26.17
2018-03-29T13:25:15.324Z,25.86
2018-03-29T13:27:42.852Z,25.82
2018-03-29T13:30:10.407Z,25.22
2018-03-29T13:32:37.928Z,25.21
2018-03-29T13:35:05.477Z,25.27
2018-03-29T13:37:33.030Z,25.89
2018-03-29T13:40:00.560Z,24.97
2018-03-29T13:42:28.102Z,26.19
2018-03-29T13:44:55.623Z,25.00
2018-03-29T13:47:23.134Z,24.52
2018-03-29T13:49:50.643Z,24.25
2018-03-29T13:52:18.159Z,25.10
2018-03-29T13:54:45.745Z,24.74
2018-03-29T13:57:13.271Z,24.59
2018-03-29T13:59:40.814Z,24.05
2018-03-29T14:02:08.333Z,25.09
2018-03-29T14:04:35.867Z,25.18
2018-03-29T14:07:03.374Z,25.01
2018-03-29T14:09:30.892Z,25.40
2018-03-29T14:11:58.439Z,25.16
2018-03-29T14:14:25.995Z,25.15
2018-03-29T14:16:53.486Z,25.27
2018-03-29T14:19:20.998Z,24.67
2018-03-29T14:21:48.515Z,24.98
2018-03-29T14:24:16.064Z,24.49
2018-03-29T14:26:43.590Z,24.72
2018-03-29T14:29:11.138Z,24.63
2018-03-29T14:31:38.671Z,25.36
2018-03-29T14:34:06.193Z,25.36
2018-03-29T14:36:33.730Z,25.41
2018-03-29T14:39:01.267Z,25.35
2018-03-29T14:41:28.883Z,25.31
2018-03-29T14:43:56.379Z,25.02
2018-03-29T14:46:23.910Z,24.94
2018-03-29T14:48:51.426Z,24.72
2018-03-29T14:51:18.928Z,24.98
2018-03-29T14:53:46.466Z,25.32
2018-03-29T14:56:13.973Z,24.71
2018-03-29T14:58:41.507Z,25.52
2018-03-29T15:01:09.072Z,25.71
2018-03-29T15:03:36.573Z,25.55
2018-03-29T15:06:04.077Z,25.96
2018-03-29T15:08:32.253Z,25.73
2018-03-29T15:10:59.766Z,26.12
2018-03-29T15:13:27.297Z,26.25
2018-03-29T15:15:54.793Z,26.17
2018-03-29T15:18:22.348Z,26.29
2018-03-29T15:20:49.856Z,25.94
2018-03-29T15:23:17.348Z,26.10
2018-03-29T15:25:44.880Z,26.58
2018-03-29T15:28:12.396Z,27.58
2018-03-29T15:30:39.969Z,27.44
2018-03-29T15:33:07.454Z,27.40
2018-03-29T15:35:34.998Z,27.66
2018-03-29T15:38:02.500Z,27.95
2018-03-29T15:40:30.009Z,28.24
2018-03-29T15:42:57.537Z,28.75
2018-03-29T15:45:25.041Z,27.82
2018-03-29T15:47:52.538Z,28.31
2018-03-29T15:50:20.037Z,28.58
2018-03-29T15:52:47.533Z,28.86
2018-03-29T15:55:15.072Z,28.89
2018-03-29T15:57:42.608Z,28.60
2018-03-29T16:00:10.139Z,28.57
2018-03-29T16:02:37.646Z,28.69
2018-03-29T16:05:05.156Z,28.65
2018-03-29T16:07:32.662Z,28.59
2018-03-29T16:10:00.180Z,29.06
2018-03-29T16:12:27.718Z,29.11
2018-03-29T16:14:55.317Z,29.46
2018-03-29T16:17:22.820Z,29.62
2018-03-29T16:19:50.328Z,29.99
2018-03-29T16:22:17.848Z,30.74
2018-03-29T16:24:45.392Z,30.31
2018-03-29T16:27:12.905Z,30.55
2018-03-29T16:29:40.470Z,31.05
2018-03-29T16:32:08.038Z,31.06
2018-03-29T16:34:35.556Z,31.06
2018-03-29T16:37:03.106Z,31.21
2018-03-29T16:39:30.621Z,30.99
2018-03-29T16:41:58.137Z,31.55
2018-03-29T16:44:25.649Z,31.64
2018-03-29T16:46:53.161Z,31.87
2018-03-29T16:49:20.709Z,32.13
2018-03-29T16:51:48.217Z,32.56
2018-03-29T16:54:15.776Z,32.81
2018-03-29T16:56:43.285Z,32.89
2018-03-29T16:59:10.929Z,32.96
2018-03-29T17:01:38.481Z,33.10
2018-03-29T17:04:05.985Z,33.34
2018-03-29T17:06:33.499Z,34.18
2018-03-29T17:09:01.038Z,34.29
2018-03-29T17:11:28.553Z,34.21
2018-03-29T17:13:56.138Z,34.30
2018-03-29T17:16:23.654Z,33.80
2018-03-29T17:18:51.175Z,33.64
2018-03-29T17:21:18.681Z,33.97
2018-03-29T17:23:46.262Z,34.08
2018-03-29T17:26:13.805Z,33.81
2018-03-29T17:28:41.309Z,34.01
2018-03-29T17:31:08.952Z,34.28
2018-03-29T17:33:36.456Z,34.96
2018-03-29T17:36:03.988Z,34.96
2018-03-29T17:38:31.529Z,34.89
2018-03-29T17:40:59.033Z,35.08
2018-03-29T17:43:26.581Z,35.21
2018-03-29T17:45:54.113Z,35.48
2018-03-29T17:48:21.624Z,35.77
2018-03-29T17:50:49.147Z,36.05
2018-03-29T17:53:16.653Z,36.42
2018-03-29T17:55:44.165Z,37.08
2018-03-29T17:58:11.697Z,37.10
2018-03-29T18:00:39.212Z,37.21
2018-03-29T18:03:06.725Z,37.39
2018-03-29T18:05:34.284Z,37.39
2018-03-29T18:08:01.805Z,37.66
2018-03-29T18:10:29.314Z,38.15
2018-03-29T18:12:56.829Z,37.87
2018-03-29T18:15:24.358Z,37.65
2018-03-29T18:17:51.897Z,37.51
2018-03-29T18:20:19.452Z,37.94
2018-03-29T18:22:46.961Z,37.67
2018-03-29T18:25:14.477Z,38.15
2018-03-29T18:27:41.997Z,38.62
2018-03-29T18:30:09.544Z,39.03
2018-03-29T18:32:37.061Z,38.85
2018-03-29T18:35:04.575Z,39.11
2018-03-29T18:37:32.140Z,39.20
2018-03-29T18:39:59.648Z,39.37
2018-03-29T18:42:27.190Z,40.08
2018-03-29T18:44:54.702Z,40.77
2018-03-29T18:47:22.209Z,40.98
2018-03-29T18:49:49.718Z,41.77
2018-03-29T18:52:18.206Z,42.44
2018-03-29T18:54:45.710Z,43.38
2018-03-29T18:57:13.224Z,43.65
2018-03-29T18:59:40.805Z,44.32
2018-03-29T19:02:08.316Z,45.39
2018-03-29T19:04:35.923Z,45.51
2018-03-29T19:07:03.436Z,45.31
2018-03-29T19:09:30.944Z,45.04
2018-03-29T19:11:58.480Z,45.19
2018-03-29T19:14:26.060Z,45.45
2018-03-29T19:16:54.475Z,45.65
2018-03-29T19:19:22.038Z,46.44
2018-03-29T19:21:51.852Z,46.88
2018-03-29T19:24:19.491Z,47.45
2018-03-29T19:26:46.997Z,47.85
2018-03-29T19:29:14.508Z,48.12
2018-03-29T19:31:42.018Z,48.28
2018-03-29T19:34:09.526Z,48.32
2018-03-29T19:36:37.490Z,49.18
2018-03-29T19:39:05.005Z,50.33
2018-03-29T19:41:33.284Z,51.11
2018-03-29T19:44:01.025Z,51.67
2018-03-29T19:48:57.746Z,52.91
2018-03-29T19:51:25.272Z,53.15
2018-03-29T19:53:52.846Z,53.22
2018-03-29T19:56:20.352Z,53.17
2018-03-29T19:58:47.929Z,52.54
2018-03-29T20:01:15.510Z,52.47
2018-03-29T20:03:43.023Z,51.81
2018-03-29T20:06:10.953Z,51.96
2018-03-29T20:08:38.460Z,52.15
2018-03-29T20:11:05.994Z,52.27
2018-03-29T20:13:33.559Z,52.37
2018-03-29T20:16:01.083Z,52.38
2018-03-29T20:18:28.601Z,52.29
2018-03-29T20:20:56.108Z,52.41
2018-03-29T20:23:23.612Z,52.52
2018-03-29T20:25:51.188Z,52.76
2018-03-29T20:28:18.703Z,52.92
2018-03-29T20:30:46.273Z,52.80
2018-03-29T20:33:13.871Z,52.60
2018-03-29T20:35:41.385Z,52.41
2018-03-29T20:38:08.893Z,52.23
2018-03-29T20:40:36.401Z,52.63
2018-03-29T20:43:04.009Z,52.41
2018-03-29T20:45:31.787Z,53.09
2018-03-29T20:47:59.296Z,52.87
2018-03-29T20:50:26.808Z,52.68
2018-03-29T20:52:54.338Z,53.22
2018-03-29T20:55:21.889Z,52.76
2018-03-29T20:57:49.398Z,52.71
2018-03-29T21:00:16.962Z,53.52
2018-03-29T21:02:45.274Z,53.80
2018-03-29T21:05:12.793Z,53.56
2018-03-29T21:07:40.304Z,53.46
2018-03-29T21:10:07.812Z,54.16
2018-03-29T21:12:35.346Z,54.12
2018-03-29T21:15:02.852Z,53.69
2018-03-29T21:17:30.356Z,53.66
2018-03-29T21:19:57.889Z,53.73
2018-03-29T21:22:25.393Z,53.70
2018-03-29T21:24:52.900Z,53.37
2018-03-29T21:27:20.432Z,53.38
2018-03-29T21:29:47.940Z,53.49
2018-03-29T21:32:15.464Z,53.57
2018-03-29T21:34:42.973Z,53.55
2018-03-29T21:37:10.472Z,53.12
2018-03-29T21:39:38.036Z,53.38
2018-03-29T21:42:05.549Z,53.04
2018-03-29T21:44:33.117Z,53.20
2018-03-29T21:47:00.625Z,52.87
2018-03-29T21:49:28.136Z,52.80
2018-03-29T21:51:55.900Z,53.06
2018-03-29T21:54:23.400Z,53.00
2018-03-29T21:56:51.540Z,53.19
2018-03-29T21:59:19.054Z,53.34
2018-03-29T22:01:46.597Z,54.14
2018-03-29T22:04:14.097Z,53.91
2018-03-29T22:06:41.598Z,53.84
2018-03-29T22:09:09.108Z,53.72
2018-03-29T22:11:36.655Z,54.02
2018-03-29T22:14:04.190Z,54.09
2018-03-29T22:16:31.705Z,54.17
2018-03-29T22:18:59.214Z,54.46
2018-03-29T22:21:26.734Z,54.35
2018-03-29T22:23:54.254Z,54.00
2018-03-29T22:26:21.838Z,54.00
2018-03-29T22:28:49.309Z,54.12
2018-03-29T22:31:16.869Z,54.16
2018-03-29T22:33:44.431Z,54.59
2018-03-29T22:36:11.946Z,54.00
2018-03-29T22:38:39.513Z,53.99
2018-03-29T22:41:07.075Z,54.25
2018-03-29T22:43:34.634Z,54.03
2018-03-29T22:46:02.145Z,53.61
2018-03-29T22:48:29.682Z,53.48
2018-03-29T22:50:57.185Z,53.14
2018-03-29T22:53:24.713Z,53.30
2018-03-29T22:55:52.253Z,52.98
2018-03-29T22:58:19.757Z,53.03
2018-03-29T23:00:47.319Z,53.25
2018-03-29T23:03:14.825Z,52.94
2018-03-29T23:05:42.321Z,53.40
2018-03-29T23:08:09.820Z,53.21
2018-03-29T23:10:37.320Z,53.23
2018-03-29T23:13:04.886Z,53.41
2018-03-29T23:15:32.388Z,53.83
2018-03-29T23:17:59.888Z,53.80
2018-03-29T23:20:27.388Z,53.41
2018-03-29T23:22:55.128Z,53.76
2018-03-29T23:25:22.657Z,53.75
2018-03-29T23:27:50.156Z,53.82
2018-03-29T23:30:17.730Z,53.32
2018-03-29T23:32:45.241Z,53.20
2018-03-29T23:35:12.752Z,53.39
2018-03-29T23:37:40.268Z,53.74
2018-03-29T23:40:07.777Z,53.76
2018-03-29T23:42:35.345Z,53.94
2018-03-29T23:45:02.854Z,53.96
2018-03-29T23:47:30.595Z,54.35
2018-03-29T23:49:58.141Z,54.92
2018-03-29T23:52:25.644Z,55.18
2018-03-29T23:54:53.172Z,55.78
2018-03-29T23:57:20.694Z,56.35
2018-03-29T23:59:48.206Z,56.11
